Wichita Mid Continent Airport
KICT : now visible

Airfield :











YOU CAN JOIN US ON...

 
LOGIN :

Register | Disclaimer

   EN    FR    IT 

 









Legend :    VFR   Marginal VFR   IFR   Intensive IFR   Very Intensive IFR
Visi :
Ceiling :
>= 8 km
>= 3000ft
5 to 8 km
1000 to 3000 ft
1500m to 5 km
500 to 1000 ft
800 to 1500m
200 to 500 ft
< 800m
< 200 ft
Symbols :   Thunderstorms  Fog  Heavy snow  Heavy precipitations  Wind > 20 kt







- Airport Elevation : 1333 ft
- IATA code : ICT


KICT - Wichita Mid Continent

CURRENT METAR :
  • 200753Z 08009KT 10SM FEW150 SCT220 14/08 A3000 RMK AO2 SLP152 T01390083

EXPIRED METARs :
  • 200653Z 07006KT 10SM FEW150 BKN220 14/08 A3000 RMK AO2 SLP152 T01390083
  • 200553Z 06008KT 10SM SCT150 BKN200 15/09 A2999 RMK AO2 SLP149 T01500089 10200 20150 402170128 50007

TAF KICT
Valid from the 20 at 06:00 until the 21 at 06:00 UTC


200520Z 2006/2106 05008KT P6SM SCT250
FM201200 08012KT P6SM BKN250
FM201600 08015G23KT P6SM VCSH SCT040 BKN100
FM201800 09017G25KT 3SM SHRA VCTS OVC030CB
FM202100 09018G26KT 3SM TSRA BR OVC010CB
KZKC FIR / North America



MET'MAP, your aeronautical weather chart ! - Copyright ORBIFLY December 2007 - Disclaimer

ORBIFLY MET'MAP TEAM :

Programming & Development : Alexandra Zaïnal
Concept & Development : Baudouin d'Aumeries
Co-Development & Prog : Marc-Olivier Méhu
Technical & hardware support : Manuel Goepfert

Contact : metmap@orbifly.com




SOURCES & CREDITS :

   NOAA       Earth
Advisory